createdAt,value
2022-10-19T00:07:18.935Z,9.23
2022-10-19T00:17:22.585Z,7.17
2022-10-19T00:27:27.649Z,6.23
2022-10-19T00:37:31.695Z,6.80
2022-10-19T00:47:36.751Z,7.53
2022-10-19T00:57:52.324Z,9.97
2022-10-19T01:07:59.851Z,7.67
2022-10-19T01:18:13.760Z,12.90
2022-10-19T01:28:38.079Z,8.73
2022-10-19T01:38:53.613Z,7.63
2022-10-19T01:49:05.129Z,9.07
2022-10-19T01:59:11.975Z,10.40
2022-10-19T02:09:18.296Z,7.40
2022-10-19T02:29:34.744Z,5.83
2022-10-19T02:39:40.810Z,8.57
2022-10-19T02:49:46.041Z,9.63
2022-10-19T02:59:51.700Z,8.90
2022-10-19T03:09:55.383Z,8.47
2022-10-19T03:20:00.422Z,12.03
2022-10-19T03:30:04.939Z,7.77
2022-10-19T03:40:11.177Z,8.93
2022-10-19T03:50:17.024Z,12.43
2022-10-19T04:00:22.281Z,9.10
2022-10-19T04:10:26.236Z,6.43
2022-10-19T04:20:31.463Z,4.83
2022-10-19T04:30:35.559Z,8.40
2022-10-19T04:40:41.162Z,8.00
2022-10-19T04:50:44.832Z,7.60
2022-10-19T05:00:53.596Z,6.00
2022-10-19T05:11:03.064Z,6.53
2022-10-19T05:21:14.002Z,7.03
2022-10-19T05:31:20.303Z,8.60
2022-10-19T05:41:26.979Z,7.67
2022-10-19T05:51:30.646Z,7.47
2022-10-19T06:01:36.310Z,7.93
2022-10-19T06:11:48.795Z,7.50
2022-10-19T06:21:53.755Z,8.33
2022-10-19T06:31:59.657Z,9.07
2022-10-19T06:42:09.616Z,7.43
2022-10-19T06:52:13.250Z,7.07
2022-10-19T07:02:24.595Z,5.43
2022-10-19T07:12:28.489Z,3.67
2022-10-19T07:22:33.437Z,2.47
2022-10-19T07:32:37.532Z,6.73
2022-10-19T07:42:42.518Z,5.27
2022-10-19T07:52:55.842Z,5.00
2022-10-19T08:13:27.628Z,6.23
2022-10-19T08:23:35.164Z,2.97
2022-10-19T08:33:40.478Z,6.90
2022-10-19T08:44:00.348Z,2.73
2022-10-19T08:54:12.156Z,4.00
2022-10-19T09:04:23.106Z,3.37
2022-10-19T09:14:33.321Z,3.13
2022-10-19T09:24:45.884Z,3.50
2022-10-19T09:34:57.609Z,3.83
2022-10-19T09:45:16.384Z,4.23
2022-10-19T09:55:40.338Z,4.37
2022-10-19T10:05:49.624Z,3.07
2022-10-19T10:16:03.024Z,3.73
2022-10-19T10:26:21.106Z,2.37
2022-10-19T10:36:29.506Z,2.53
2022-10-19T10:46:39.195Z,2.63
2022-10-19T10:56:46.006Z,3.20
2022-10-19T11:06:57.637Z,2.97
2022-10-19T11:17:08.264Z,2.63
2022-10-19T11:27:27.001Z,1.48
2022-10-19T11:37:49.904Z,4.32
2022-10-19T11:48:29.646Z,2.88
2022-10-19T11:58:52.114Z,3.47
2022-10-19T12:09:16.042Z,3.15
2022-10-19T12:19:23.908Z,2.90
2022-10-19T12:29:35.238Z,2.20
2022-10-19T12:39:49.720Z,2.88
2022-10-19T12:49:59.112Z,2.78
2022-10-19T13:00:08.261Z,3.30
2022-10-19T13:10:26.666Z,3.53
2022-10-19T13:20:53.325Z,1.63
2022-10-19T13:31:16.211Z,2.72
2022-10-19T13:41:21.830Z,2.05
2022-10-19T13:51:34.494Z,2.45
2022-10-19T14:02:09.230Z,2.90
2022-10-19T14:12:24.075Z,1.73
2022-10-19T14:22:30.935Z,2.42
2022-10-19T14:32:36.221Z,1.85
2022-10-19T14:42:43.570Z,1.23
2022-10-19T14:52:52.117Z,1.77
2022-10-19T15:03:01.797Z,2.17
2022-10-19T15:13:12.115Z,2.35
2022-10-19T15:23:39.385Z,4.50
2022-10-19T15:33:49.290Z,1.88
2022-10-19T15:43:55.067Z,7.45
2022-10-19T15:54:02.871Z,12.68
2022-10-19T16:04:08.793Z,15.30
2022-10-19T16:14:13.765Z,21.52
2022-10-19T16:24:20.192Z,6.18
2022-10-19T16:34:27.675Z,4.23
2022-10-19T16:44:33.255Z,4.13
2022-10-19T16:54:38.279Z,3.83
2022-10-19T17:04:42.067Z,3.93
2022-10-19T17:14:47.251Z,5.20
2022-10-19T17:24:50.908Z,6.17
2022-10-19T17:34:56.370Z,4.43
2022-10-19T17:45:00.151Z,3.93
2022-10-19T17:55:13.052Z,5.20
2022-10-19T18:05:18.600Z,6.63
2022-10-19T18:15:23.698Z,6.13
2022-10-19T18:25:49.394Z,3.50
2022-10-19T18:35:52.522Z,4.03
2022-10-19T18:45:58.545Z,4.57
2022-10-19T18:56:06.519Z,3.97
2022-10-19T19:06:14.398Z,3.93
2022-10-19T19:16:20.844Z,4.30
2022-10-19T19:26:28.517Z,4.70
2022-10-19T19:36:33.705Z,4.37
2022-10-19T19:46:37.837Z,5.10
2022-10-19T19:56:43.222Z,4.17
2022-10-19T20:06:46.918Z,5.73
2022-10-19T20:16:51.872Z,4.67
2022-10-19T20:26:55.796Z,4.13
2022-10-19T20:37:01.053Z,4.50
2022-10-19T20:47:05.217Z,3.00
2022-10-19T20:57:10.498Z,5.20
2022-10-19T21:07:14.481Z,4.20
2022-10-19T21:17:19.938Z,3.33
2022-10-19T21:27:24.034Z,3.57
2022-10-19T21:37:30.644Z,3.70
2022-10-19T21:47:36.054Z,3.27
2022-10-19T21:57:41.391Z,3.30
2022-10-19T22:07:45.203Z,4.13
2022-10-19T22:17:50.194Z,3.67
2022-10-19T22:27:54.047Z,2.20
2022-10-19T22:37:59.121Z,3.43
2022-10-19T22:48:03.438Z,5.57
2022-10-19T22:58:09.611Z,2.37
2022-10-19T23:08:13.234Z,1.23
2022-10-19T23:18:18.839Z,3.60
2022-10-19T23:28:22.533Z,2.50
2022-10-19T23:38:27.569Z,1.27
2022-10-19T23:48:31.464Z,2.03
2022-10-19T23:58:36.523Z,1.60
